Terminal Aerodrome Forecast
Issued by NWS Indianapolis, IN

Home | Current Version | Previous Version | Text Only | Print | Product List | Glossary On
Versions: 1 2 3 4 5 6 7 8 9 10 11 12 13 14 15 16 17 18 19 20 21 22 23 24 25 26 27 28 29 30 31 32
000
FTUS43 KIND 192019 AAC
TAFIND
TAF AMD
KIND 192019Z 1920/2024 21017G26KT P6SM VCSH BKN025 OVC040
     FM200000 19012KT P6SM VCSH OVC035 WS020/21040KT
     FM200500 19014G24KT P6SM VCSH OVC015 WS020/21045KT
     FM201800 20015G28KT 6SM -SHRA OVC015=

USA.gov is the U.S. government's official web portal to all federal, state and local government web resources and services.